createdAt,value
2019-02-28T00:04:51.895Z,6.93
2019-02-28T00:07:21.300Z,6.63
2019-02-28T00:18:39.121Z,7.13
2019-02-28T00:21:27.186Z,7.03
2019-02-28T00:24:15.536Z,7.40
2019-02-28T00:33:20.426Z,8.57
2019-02-28T00:36:19.844Z,7.23
2019-02-28T00:42:24.152Z,6.80
2019-02-28T00:45:12.734Z,7.20
2019-02-28T00:48:04.702Z,7.13
2019-02-28T00:56:32.312Z,7.53
2019-02-28T00:59:13.230Z,7.10
2019-02-28T01:01:43.042Z,7.17
2019-02-28T01:04:12.864Z,7.20
2019-02-28T01:07:01.142Z,7.03
2019-02-28T01:09:49.316Z,7.00
2019-02-28T01:12:19.178Z,7.07
2019-02-28T01:14:49.190Z,5.70
2019-02-28T01:17:37.289Z,6.90
2019-02-28T01:20:25.465Z,7.33
2019-02-28T01:23:06.325Z,7.30
2019-02-28T01:25:47.301Z,6.47
2019-02-28T01:28:16.348Z,6.87
2019-02-28T01:37:06.571Z,6.10
2019-02-28T01:39:47.879Z,6.80
2019-02-28T01:42:28.890Z,6.93
2019-02-28T01:45:11.017Z,7.60
2019-02-28T01:47:52.435Z,6.90
2019-02-28T01:50:33.550Z,6.80
2019-02-28T01:53:18.678Z,7.10
2019-02-28T01:55:57.037Z,6.43
2019-02-28T01:58:38.489Z,5.93
2019-02-28T02:01:19.513Z,7.17
2019-02-28T02:04:00.159Z,7.77
2019-02-28T02:06:41.427Z,7.60
2019-02-28T02:09:11.039Z,7.40
2019-02-28T02:12:00.537Z,6.67
2019-02-28T02:14:48.945Z,6.90
2019-02-28T02:17:36.612Z,6.83
2019-02-28T02:20:26.293Z,7.10
2019-02-28T02:23:34.421Z,7.30
2019-02-28T02:26:22.751Z,7.43
2019-02-28T02:29:10.968Z,7.23
2019-02-28T02:54:17.847Z,7.67
2019-02-28T03:15:42.124Z,9.23
2019-02-28T03:18:11.390Z,9.70
2019-02-28T03:20:42.318Z,9.73
2019-02-28T03:23:14.754Z,10.50
2019-02-28T03:25:51.846Z,10.47
2019-02-28T03:28:23.079Z,9.67
2019-02-28T03:30:58.102Z,10.60
2019-02-28T03:33:33.675Z,9.67
2019-02-28T03:36:03.175Z,10.33
2019-02-28T03:38:32.339Z,10.90
2019-02-28T03:41:01.727Z,9.90
2019-02-28T03:43:31.518Z,10.40
2019-02-28T03:46:34.726Z,10.67
2019-02-28T03:51:46.753Z,11.57
2019-02-28T04:03:10.500Z,11.37
2019-02-28T04:05:43.405Z,12.00
2019-02-28T04:08:13.269Z,12.00
2019-02-28T04:10:42.460Z,11.70
2019-02-28T04:13:12.180Z,12.00
2019-02-28T04:18:53.345Z,12.47
2019-02-28T04:24:30.966Z,12.27
2019-02-28T04:27:16.764Z,13.10
2019-02-28T04:30:07.876Z,13.17
2019-02-28T04:33:12.533Z,12.90
2019-02-28T04:35:41.942Z,13.33
2019-02-28T04:38:10.864Z,13.63
2019-02-28T04:41:15.704Z,12.73
2019-02-28T04:44:03.874Z,13.03
2019-02-28T04:46:52.288Z,13.13
2019-02-28T04:49:40.510Z,14.70
2019-02-28T04:52:28.708Z,14.40
2019-02-28T05:07:41.063Z,16.63
2019-02-28T05:19:55.748Z,18.10
2019-02-28T05:22:44.443Z,15.97
2019-02-28T05:25:17.785Z,16.00
2019-02-28T05:33:42.091Z,17.80
2019-02-28T05:36:29.163Z,16.73
2019-02-28T05:39:17.334Z,17.00
2019-02-28T05:42:05.454Z,18.03
2019-02-28T05:44:53.623Z,17.73
2019-02-28T05:47:46.375Z,18.53
2019-02-28T05:50:15.570Z,19.17
2019-02-28T05:53:03.047Z,20.87
2019-02-28T05:55:52.254Z,20.40
2019-02-28T05:58:40.415Z,20.20
2019-02-28T06:01:28.520Z,20.63
2019-02-28T06:04:16.821Z,20.80
2019-02-28T06:07:04.903Z,20.30
2019-02-28T06:09:53.081Z,21.20
2019-02-28T06:12:43.825Z,21.27
2019-02-28T06:15:34.239Z,22.27
2019-02-28T06:18:21.643Z,21.60
2019-02-28T06:21:10.343Z,22.07
2019-02-28T06:23:59.876Z,21.97
2019-02-28T06:26:40.913Z,22.33
2019-02-28T06:29:21.891Z,23.93
2019-02-28T06:32:02.723Z,23.87
2019-02-28T06:34:43.907Z,24.00
2019-02-28T06:37:25.249Z,22.43
2019-02-28T06:40:04.915Z,24.47
2019-02-28T06:42:52.996Z,24.20
2019-02-28T06:45:41.335Z,25.50
2019-02-28T06:48:29.391Z,23.53
2019-02-28T06:51:10.024Z,24.80
2019-02-28T06:53:50.997Z,26.00
2019-02-28T06:56:31.762Z,28.00
2019-02-28T06:59:12.355Z,25.33
2019-02-28T07:01:56.617Z,27.30
2019-02-28T07:04:35.213Z,27.50
2019-02-28T07:07:16.111Z,28.93
2019-02-28T07:09:57.230Z,27.90
2019-02-28T07:12:38.111Z,29.20
2019-02-28T07:15:23.646Z,28.77
2019-02-28T07:18:01.393Z,27.07
2019-02-28T07:20:43.001Z,29.50
2019-02-28T07:23:23.555Z,28.00
2019-02-28T07:26:04.101Z,29.20
2019-02-28T07:28:45.038Z,29.90
2019-02-28T07:31:25.793Z,29.13
2019-02-28T07:34:06.443Z,29.30
2019-02-28T07:36:47.554Z,30.27
2019-02-28T07:39:28.462Z,31.50
2019-02-28T07:42:09.231Z,30.50
2019-02-28T07:44:49.956Z,32.30
2019-02-28T07:47:30.870Z,32.97
2019-02-28T07:50:12.169Z,31.30
2019-02-28T07:52:53.258Z,32.30
2019-02-28T07:55:34.546Z,32.77
2019-02-28T07:58:15.367Z,30.97
2019-02-28T08:00:56.055Z,33.67
2019-02-28T08:03:36.760Z,34.13
2019-02-28T08:06:17.179Z,33.07
2019-02-28T08:08:57.819Z,33.60
2019-02-28T08:11:38.210Z,34.90
2019-02-28T08:14:18.916Z,34.37
2019-02-28T08:17:00.012Z,33.77
2019-02-28T08:19:40.366Z,34.93
2019-02-28T08:22:24.197Z,34.83
2019-02-28T08:27:45.383Z,34.97
2019-02-28T08:30:26.493Z,36.83
2019-02-28T08:33:07.287Z,35.07
2019-02-28T09:00:13.577Z,36.60
2019-02-28T09:15:04.436Z,39.07
2019-02-28T09:17:45.513Z,40.13
2019-02-28T09:20:26.196Z,39.10
2019-02-28T09:23:07.336Z,37.67
2019-02-28T09:28:29.864Z,38.93
2019-02-28T09:31:10.354Z,40.10
2019-02-28T09:33:51.156Z,39.67
2019-02-28T09:36:31.952Z,39.77
2019-02-28T09:39:16.390Z,40.20
2019-02-28T09:41:56.173Z,40.83
2019-02-28T09:44:37.163Z,39.70
2019-02-28T09:47:18.178Z,40.27
2019-02-28T09:49:59.204Z,40.73
2019-02-28T09:52:41.656Z,39.67
2019-02-28T09:55:23.165Z,40.97
2019-02-28T09:57:54.808Z,39.10
2019-02-28T10:00:43.253Z,37.70
2019-02-28T10:03:31.955Z,40.23
2019-02-28T10:06:20.073Z,40.33
2019-02-28T10:09:08.778Z,40.00
2019-02-28T10:11:58.007Z,39.20
2019-02-28T10:14:46.235Z,40.77
2019-02-28T10:17:34.345Z,38.87
2019-02-28T10:20:27.347Z,39.80
2019-02-28T10:23:13.256Z,39.73
2019-02-28T10:26:01.537Z,39.20
2019-02-28T10:28:30.608Z,36.00
2019-02-28T10:30:59.581Z,38.83
2019-02-28T10:33:28.597Z,39.70
2019-02-28T10:35:57.569Z,37.70
2019-02-28T10:38:29.448Z,38.67
2019-02-28T10:40:57.226Z,38.10
2019-02-28T10:43:26.138Z,39.30
2019-02-28T10:46:16.961Z,39.30
2019-02-28T10:49:04.174Z,37.27
2019-02-28T10:51:33.134Z,37.73
2019-02-28T10:54:02.096Z,38.90
2019-02-28T10:56:32.072Z,37.73
2019-02-28T10:59:01.919Z,35.23
2019-02-28T11:01:30.955Z,36.87
2019-02-28T11:04:00.290Z,34.93
2019-02-28T11:06:48.703Z,36.23
2019-02-28T11:09:58.799Z,36.60
2019-02-28T11:12:47.793Z,37.90
2019-02-28T11:15:35.953Z,35.80
2019-02-28T11:18:24.054Z,35.07
2019-02-28T11:24:00.292Z,35.40
2019-02-28T11:29:24.071Z,34.77
2019-02-28T11:32:04.766Z,34.97
2019-02-28T11:34:45.838Z,33.83
2019-02-28T11:37:16.343Z,34.60
2019-02-28T11:39:45.450Z,35.70
2019-02-28T11:42:14.411Z,35.27
2019-02-28T11:45:02.947Z,34.63
2019-02-28T11:47:51.901Z,34.63
2019-02-28T11:50:20.923Z,33.73
2019-02-28T11:52:49.774Z,37.00
2019-02-28T11:55:38.244Z,34.83
2019-02-28T11:58:07.157Z,35.73
2019-02-28T12:00:55.306Z,37.13
2019-02-28T12:06:18.983Z,35.03
2019-02-28T12:08:59.713Z,33.07
2019-02-28T12:14:53.535Z,34.00
2019-02-28T12:17:34.203Z,34.60
2019-02-28T12:20:15.524Z,31.97
2019-02-28T12:22:56.181Z,35.43
2019-02-28T12:25:39.618Z,36.43
2019-02-28T12:28:20.382Z,37.23
2019-02-28T12:31:01.652Z,34.70
2019-02-28T12:33:43.107Z,34.80
2019-02-28T12:36:24.232Z,32.73
2019-02-28T12:39:05.508Z,35.20
2019-02-28T12:41:46.347Z,36.27
2019-02-28T12:47:09.231Z,32.80
2019-02-28T12:49:50.184Z,32.43
2019-02-28T12:52:31.207Z,32.30
2019-02-28T12:55:12.027Z,33.87
2019-02-28T12:57:54.853Z,32.03
2019-02-28T13:00:36.132Z,33.53
2019-02-28T13:03:05.248Z,34.50
2019-02-28T13:05:34.220Z,32.37
2019-02-28T13:08:05.823Z,31.97
2019-02-28T13:10:34.098Z,33.10
2019-02-28T13:13:06.904Z,33.97
2019-02-28T13:15:33.684Z,35.07
2019-02-28T13:18:07.311Z,35.30
2019-02-28T13:20:34.725Z,34.70
2019-02-28T13:23:04.571Z,34.20
2019-02-28T13:25:33.464Z,35.30
2019-02-28T13:28:02.460Z,36.10
2019-02-28T13:30:31.486Z,36.17
2019-02-28T13:33:00.369Z,36.97
2019-02-28T13:35:30.587Z,36.23
2019-02-28T13:37:59.806Z,37.30
2019-02-28T13:40:28.852Z,36.03
2019-02-28T13:42:57.839Z,35.17
2019-02-28T13:45:26.801Z,35.73
2019-02-28T13:47:55.824Z,35.63
2019-02-28T13:50:27.105Z,35.47
2019-02-28T13:52:56.752Z,35.83
2019-02-28T13:55:26.122Z,36.70
2019-02-28T13:57:55.093Z,36.57
2019-02-28T14:00:25.979Z,35.53
2019-02-28T14:02:56.765Z,35.27
2019-02-28T14:05:26.200Z,36.60
2019-02-28T14:07:56.804Z,34.80
2019-02-28T14:10:29.767Z,37.00
2019-02-28T14:12:57.988Z,37.80
2019-02-28T14:15:27.837Z,38.53
2019-02-28T14:17:56.389Z,37.03
2019-02-28T14:20:27.630Z,38.20
2019-02-28T14:22:56.061Z,37.87
2019-02-28T14:25:25.670Z,36.90
2019-02-28T14:27:56.873Z,36.27
2019-02-28T14:30:25.793Z,35.43
2019-02-28T14:32:55.135Z,36.03
2019-02-28T14:35:24.428Z,37.53
2019-02-28T14:37:55.798Z,37.67
2019-02-28T14:40:24.318Z,36.50
2019-02-28T14:42:53.284Z,38.40
2019-02-28T14:45:22.266Z,38.07
2019-02-28T14:47:56.939Z,37.67
2019-02-28T14:50:22.709Z,37.70
2019-02-28T14:52:52.779Z,36.80
2019-02-28T14:55:22.024Z,38.30
2019-02-28T14:57:51.027Z,36.27
2019-02-28T15:00:20.589Z,35.77
2019-02-28T15:02:50.709Z,36.80
2019-02-28T15:05:20.490Z,35.43
2019-02-28T15:07:49.549Z,36.43
2019-02-28T15:10:18.400Z,38.50
2019-02-28T15:12:46.817Z,38.20
2019-02-28T15:15:17.961Z,37.77
2019-02-28T15:17:46.333Z,38.73
2019-02-28T15:20:14.904Z,38.10
2019-02-28T15:22:43.333Z,38.30
2019-02-28T15:25:15.245Z,35.60
2019-02-28T15:27:42.911Z,34.40
2019-02-28T15:30:15.423Z,37.07
2019-02-28T15:32:43.899Z,35.97
2019-02-28T15:35:15.212Z,37.90
2019-02-28T15:37:43.481Z,36.47
2019-02-28T15:40:13.570Z,35.90
2019-02-28T15:42:43.007Z,37.60
2019-02-28T15:45:12.167Z,40.10
2019-02-28T15:47:40.631Z,40.43
2019-02-28T15:50:10.051Z,40.00
2019-02-28T15:52:39.378Z,38.47
2019-02-28T15:55:09.349Z,37.47
2019-02-28T15:57:38.706Z,39.87
2019-02-28T16:00:10.256Z,45.67
2019-02-28T16:02:42.147Z,43.10
2019-02-28T16:05:10.336Z,39.27
2019-02-28T16:07:39.266Z,40.50
2019-02-28T16:10:09.676Z,41.80
2019-02-28T16:12:38.768Z,41.30
2019-02-28T16:15:11.935Z,42.83
2019-02-28T16:17:40.816Z,41.63
2019-02-28T16:20:09.834Z,42.03
2019-02-28T16:22:38.802Z,43.80
2019-02-28T16:25:11.518Z,44.97
2019-02-28T16:27:42.065Z,44.60
2019-02-28T16:30:12.333Z,44.83
2019-02-28T16:32:41.307Z,43.33
2019-02-28T16:35:10.419Z,44.90
2019-02-28T16:37:39.464Z,44.63
2019-02-28T16:40:10.830Z,45.77
2019-02-28T16:42:40.001Z,43.43
2019-02-28T16:45:13.516Z,43.60
2019-02-28T16:47:42.604Z,51.47
2019-02-28T16:50:11.666Z,46.87
2019-02-28T16:52:40.745Z,45.70
2019-02-28T16:55:09.981Z,75.13
2019-02-28T16:57:39.018Z,46.00
2019-02-28T17:00:08.652Z,49.73
2019-02-28T17:02:37.746Z,49.37
2019-02-28T17:05:07.402Z,48.47
2019-02-28T17:07:36.390Z,48.47
2019-02-28T17:10:09.034Z,50.23
2019-02-28T17:12:54.474Z,51.00
2019-02-28T17:15:30.668Z,47.60
2019-02-28T17:18:06.838Z,52.67
2019-02-28T17:20:37.638Z,53.30
2019-02-28T17:23:06.504Z,53.97
2019-02-28T17:25:35.375Z,53.80
2019-02-28T17:28:12.297Z,54.03
2019-02-28T17:30:48.712Z,49.37
2019-02-28T17:33:17.656Z,49.87
2019-02-28T17:35:46.731Z,50.73
2019-02-28T17:38:15.780Z,49.90
2019-02-28T17:40:44.854Z,52.03
2019-02-28T17:43:14.183Z,50.17
2019-02-28T17:45:43.196Z,50.67
2019-02-28T17:48:56.835Z,48.10
2019-02-28T17:51:55.502Z,45.33
2019-02-28T17:54:37.828Z,45.07
2019-02-28T17:57:31.147Z,43.23
2019-02-28T18:00:23.500Z,46.50
2019-02-28T18:03:26.213Z,44.60
2019-02-28T18:06:35.261Z,47.67
2019-02-28T18:09:44.980Z,43.87
2019-02-28T18:13:07.506Z,45.50
2019-02-28T18:16:01.196Z,42.83
2019-02-28T18:19:18.046Z,46.20
2019-02-28T18:22:29.636Z,45.07
2019-02-28T18:25:26.105Z,48.53
2019-02-28T18:28:22.587Z,45.53
2019-02-28T18:31:19.288Z,49.53
2019-02-28T18:33:52.357Z,46.10
2019-02-28T18:36:23.230Z,44.63
2019-02-28T18:38:52.224Z,46.10
2019-02-28T18:41:21.268Z,46.40
2019-02-28T18:43:50.330Z,45.63
2019-02-28T18:46:24.042Z,46.37
2019-02-28T18:48:54.395Z,45.27
2019-02-28T18:51:23.715Z,47.70
2019-02-28T18:53:52.683Z,47.17
2019-02-28T18:56:21.604Z,50.57
2019-02-28T18:58:50.687Z,47.23
2019-02-28T19:01:19.571Z,49.53
2019-02-28T19:03:48.522Z,44.80
2019-02-28T19:06:17.551Z,55.20
2019-02-28T19:08:46.461Z,47.13
2019-02-28T19:11:15.464Z,53.60
2019-02-28T19:13:44.776Z,47.73
2019-02-28T19:16:15.192Z,49.80
2019-02-28T19:18:44.467Z,48.20
2019-02-28T19:21:13.468Z,49.90
2019-02-28T19:23:42.344Z,49.50
2019-02-28T19:26:11.221Z,46.40
2019-02-28T19:28:40.285Z,48.27
2019-02-28T19:31:09.249Z,47.93
2019-02-28T19:33:38.237Z,50.30
2019-02-28T19:36:07.376Z,48.60
2019-02-28T19:38:36.571Z,47.60
2019-02-28T19:41:05.641Z,49.60
2019-02-28T19:43:34.704Z,50.30
2019-02-28T19:46:05.163Z,49.13
2019-02-28T19:48:36.975Z,47.70
2019-02-28T19:51:06.591Z,51.30
2019-02-28T19:53:35.785Z,50.47
2019-02-28T19:56:05.255Z,51.00
2019-02-28T19:58:34.349Z,52.37
2019-02-28T20:01:03.870Z,51.20
2019-02-28T20:03:33.215Z,53.27
2019-02-28T20:06:02.501Z,50.17
2019-02-28T20:08:31.731Z,48.93
2019-02-28T20:11:01.409Z,50.17
2019-02-28T20:13:39.657Z,48.97
2019-02-28T20:16:08.836Z,51.27
2019-02-28T20:18:38.313Z,51.17
2019-02-28T20:21:07.939Z,47.20
2019-02-28T20:23:37.139Z,47.73
2019-02-28T20:26:06.566Z,47.60
2019-02-28T20:28:35.890Z,49.63
2019-02-28T20:31:05.980Z,47.60
2019-02-28T20:33:35.111Z,48.77
2019-02-28T20:36:04.603Z,47.97
2019-02-28T20:38:33.726Z,47.93
2019-02-28T20:41:04.037Z,47.30
2019-02-28T20:43:33.286Z,47.60
2019-02-28T20:46:02.781Z,46.00
2019-02-28T20:48:31.931Z,46.90
2019-02-28T20:51:01.445Z,47.77
2019-02-28T20:53:33.435Z,48.37
2019-02-28T20:56:02.941Z,46.17
2019-02-28T20:58:32.152Z,44.63
2019-02-28T21:01:01.413Z,46.40
2019-02-28T21:03:30.639Z,46.37
2019-02-28T21:05:59.836Z,44.93
2019-02-28T21:08:28.901Z,48.17
2019-02-28T21:10:58.411Z,45.77
2019-02-28T21:13:30.367Z,43.43
2019-02-28T21:15:59.357Z,42.60
2019-02-28T21:18:28.441Z,40.43
2019-02-28T21:20:57.327Z,42.47
2019-02-28T21:23:26.389Z,40.13
2019-02-28T21:25:57.207Z,41.13
2019-02-28T21:28:26.059Z,42.50
2019-02-28T21:30:55.121Z,39.40
2019-02-28T21:33:24.302Z,38.67
2019-02-28T21:35:53.343Z,36.07
2019-02-28T21:38:22.593Z,37.20
2019-02-28T21:40:51.926Z,36.17
2019-02-28T21:43:21.097Z,36.87
2019-02-28T21:45:50.174Z,35.60
2019-02-28T21:48:19.384Z,36.43
2019-02-28T21:50:48.521Z,32.70
2019-02-28T21:53:17.786Z,34.13
2019-02-28T21:55:46.895Z,32.70
2019-02-28T21:58:15.979Z,29.97
2019-02-28T22:00:45.306Z,29.87
2019-02-28T22:03:14.462Z,30.97
2019-02-28T22:05:43.678Z,30.30
2019-02-28T22:08:12.995Z,28.97
2019-02-28T22:10:42.039Z,27.77
2019-02-28T22:13:11.202Z,26.47
2019-02-28T22:15:40.048Z,26.30
2019-02-28T22:18:09.087Z,27.50
2019-02-28T22:20:37.944Z,26.30
2019-02-28T22:23:07.035Z,26.37
2019-02-28T22:25:36.025Z,26.00
2019-02-28T22:28:05.336Z,27.53
2019-02-28T22:30:56.594Z,26.30
2019-02-28T22:33:34.187Z,23.07
2019-02-28T22:36:03.452Z,24.80
2019-02-28T22:38:32.529Z,26.17
2019-02-28T22:41:01.727Z,23.70
2019-02-28T22:43:30.748Z,23.63
2019-02-28T22:45:59.592Z,23.40
2019-02-28T22:48:28.560Z,24.37
2019-02-28T22:50:58.214Z,24.23
2019-02-28T22:53:27.724Z,25.10
2019-02-28T22:55:56.562Z,24.83
2019-02-28T22:58:25.690Z,25.53
2019-02-28T23:01:03.813Z,24.83
2019-02-28T23:03:33.602Z,25.53
2019-02-28T23:06:02.694Z,24.30
2019-02-28T23:08:32.187Z,27.20
2019-02-28T23:11:01.264Z,24.50
2019-02-28T23:13:30.354Z,26.70
2019-02-28T23:15:59.614Z,24.20
2019-02-28T23:18:28.488Z,25.40
2019-02-28T23:20:57.499Z,24.53
2019-02-28T23:23:26.600Z,25.40
2019-02-28T23:26:06.158Z,25.93
2019-02-28T23:28:34.964Z,25.00
2019-02-28T23:31:34.542Z,25.53
2019-02-28T23:34:08.184Z,25.53
2019-02-28T23:36:37.154Z,26.10
2019-02-28T23:39:07.885Z,26.47
2019-02-28T23:41:36.798Z,26.17
2019-02-28T23:44:05.912Z,26.70
2019-02-28T23:46:34.862Z,25.10
2019-02-28T23:49:03.985Z,27.57
2019-02-28T23:51:33.087Z,26.13
2019-02-28T23:54:02.150Z,27.10
2019-02-28T23:56:31.133Z,26.77
2019-02-28T23:59:00.132Z,25.13
